sensor_id;sensor_type;location;lat;lon;timestamp;temperature;humidity
16267;DHT22;8241;48.786;9.250;2023-06-22T00:01:18;23.90;98.50
16267;DHT22;8241;48.786;9.250;2023-06-22T00:03:45;23.90;98.50
16267;DHT22;8241;48.786;9.250;2023-06-22T00:06:12;23.80;98.50
16267;DHT22;8241;48.786;9.250;2023-06-22T00:08:40;23.80;98.70
16267;DHT22;8241;48.786;9.250;2023-06-22T00:11:07;23.70;98.60
16267;DHT22;8241;48.786;9.250;2023-06-22T00:13:34;23.70;98.70
16267;DHT22;8241;48.786;9.250;2023-06-22T00:16:01;23.70;98.70
16267;DHT22;8241;48.786;9.250;2023-06-22T00:18:28;23.70;98.70
16267;DHT22;8241;48.786;9.250;2023-06-22T00:20:56;23.60;98.90
16267;DHT22;8241;48.786;9.250;2023-06-22T00:23:26;23.50;99.00
16267;DHT22;8241;48.786;9.250;2023-06-22T00:25:54;23.50;99.30
16267;DHT22;8241;48.786;9.250;2023-06-22T00:28:21;23.50;99.40
16267;DHT22;8241;48.786;9.250;2023-06-22T00:30:48;23.40;99.40
16267;DHT22;8241;48.786;9.250;2023-06-22T00:33:15;23.40;99.50
16267;DHT22;8241;48.786;9.250;2023-06-22T00:35:43;23.40;99.60
16267;DHT22;8241;48.786;9.250;2023-06-22T00:38:09;23.40;99.70
16267;DHT22;8241;48.786;9.250;2023-06-22T00:40:37;23.40;99.60
16267;DHT22;8241;48.786;9.250;2023-06-22T00:43:05;23.30;99.90
16267;DHT22;8241;48.786;9.250;2023-06-22T00:45:32;23.30;99.70
16267;DHT22;8241;48.786;9.250;2023-06-22T00:48:00;23.30;99.80
16267;DHT22;8241;48.786;9.250;2023-06-22T00:50:29;23.20;99.90
16267;DHT22;8241;48.786;9.250;2023-06-22T00:53:00;23.20;99.90
16267;DHT22;8241;48.786;9.250;2023-06-22T00:55:28;23.20;99.90
16267;DHT22;8241;48.786;9.250;2023-06-22T00:57:55;23.20;99.90
16267;DHT22;8241;48.786;9.250;2023-06-22T01:00:24;23.20;99.90
16267;DHT22;8241;48.786;9.250;2023-06-22T01:02:53;23.20;99.90
16267;DHT22;8241;48.786;9.250;2023-06-22T01:05:21;23.20;99.90
16267;DHT22;8241;48.786;9.250;2023-06-22T01:08:14;23.20;99.90
16267;DHT22;8241;48.786;9.250;2023-06-22T01:10:46;23.20;99.90
16267;DHT22;8241;48.786;9.250;2023-06-22T01:13:24;23.20;99.90
16267;DHT22;8241;48.786;9.250;2023-06-22T01:15:57;23.20;99.90
16267;DHT22;8241;48.786;9.250;2023-06-22T01:18:29;23.20;99.90
16267;DHT22;8241;48.786;9.250;2023-06-22T01:20:57;23.20;99.90
16267;DHT22;8241;48.786;9.250;2023-06-22T01:23:29;23.00;99.90
16267;DHT22;8241;48.786;9.250;2023-06-22T01:26:05;22.90;99.90
16267;DHT22;8241;48.786;9.250;2023-06-22T01:28:45;22.90;99.90
16267;DHT22;8241;48.786;9.250;2023-06-22T01:31:16;22.80;99.90
16267;DHT22;8241;48.786;9.250;2023-06-22T01:33:45;22.80;99.90
16267;DHT22;8241;48.786;9.250;2023-06-22T01:36:15;22.80;99.90
16267;DHT22;8241;48.786;9.250;2023-06-22T01:38:47;22.80;99.90
16267;DHT22;8241;48.786;9.250;2023-06-22T01:41:15;22.70;99.90
16267;DHT22;8241;48.786;9.250;2023-06-22T01:43:45;22.60;99.90
16267;DHT22;8241;48.786;9.250;2023-06-22T01:46:13;22.60;99.90
16267;DHT22;8241;48.786;9.250;2023-06-22T01:48:41;22.60;99.90
16267;DHT22;8241;48.786;9.250;2023-06-22T01:51:08;22.60;99.90
16267;DHT22;8241;48.786;9.250;2023-06-22T01:53:35;22.70;99.90
16267;DHT22;8241;48.786;9.250;2023-06-22T01:56:02;22.70;99.90
16267;DHT22;8241;48.786;9.250;2023-06-22T01:58:30;22.70;99.90
16267;DHT22;8241;48.786;9.250;2023-06-22T02:01:06;22.70;99.90
16267;DHT22;8241;48.786;9.250;2023-06-22T02:03:41;22.70;99.90
16267;DHT22;8241;48.786;9.250;2023-06-22T02:06:13;22.60;99.90
16267;DHT22;8241;48.786;9.250;2023-06-22T02:08:49;22.60;99.90
16267;DHT22;8241;48.786;9.250;2023-06-22T02:11:19;22.60;99.90
16267;DHT22;8241;48.786;9.250;2023-06-22T02:13:47;22.60;99.90
16267;DHT22;8241;48.786;9.250;2023-06-22T02:16:17;22.70;99.90
16267;DHT22;8241;48.786;9.250;2023-06-22T02:18:46;22.70;99.90
16267;DHT22;8241;48.786;9.250;2023-06-22T02:21:17;22.70;99.90
16267;DHT22;8241;48.786;9.250;2023-06-22T02:23:44;22.60;99.90
16267;DHT22;8241;48.786;9.250;2023-06-22T02:26:11;22.60;99.90
16267;DHT22;8241;48.786;9.250;2023-06-22T02:28:38;22.60;99.90
16267;DHT22;8241;48.786;9.250;2023-06-22T02:31:05;22.60;99.90
16267;DHT22;8241;48.786;9.250;2023-06-22T02:33:34;22.60;99.90
16267;DHT22;8241;48.786;9.250;2023-06-22T02:36:01;22.60;99.90
16267;DHT22;8241;48.786;9.250;2023-06-22T02:38:30;22.60;99.90
16267;DHT22;8241;48.786;9.250;2023-06-22T02:41:00;22.60;99.90
16267;DHT22;8241;48.786;9.250;2023-06-22T02:43:27;22.60;99.90
16267;DHT22;8241;48.786;9.250;2023-06-22T02:45:56;22.60;99.90
16267;DHT22;8241;48.786;9.250;2023-06-22T02:48:23;22.60;99.90
16267;DHT22;8241;48.786;9.250;2023-06-22T02:50:51;22.60;99.90
16267;DHT22;8241;48.786;9.250;2023-06-22T02:53:19;22.60;99.90
16267;DHT22;8241;48.786;9.250;2023-06-22T02:55:47;22.60;99.90
16267;DHT22;8241;48.786;9.250;2023-06-22T02:58:14;22.50;99.90
16267;DHT22;8241;48.786;9.250;2023-06-22T03:00:41;22.50;99.90
16267;DHT22;8241;48.786;9.250;2023-06-22T03:03:08;22.50;99.90
16267;DHT22;8241;48.786;9.250;2023-06-22T03:05:35;22.50;99.90
16267;DHT22;8241;48.786;9.250;2023-06-22T03:08:03;22.40;99.90
16267;DHT22;8241;48.786;9.250;2023-06-22T03:10:33;22.40;99.90
16267;DHT22;8241;48.786;9.250;2023-06-22T03:13:00;22.40;99.90
16267;DHT22;8241;48.786;9.250;2023-06-22T03:15:26;22.40;99.90
16267;DHT22;8241;48.786;9.250;2023-06-22T03:17:55;22.40;99.90
16267;DHT22;8241;48.786;9.250;2023-06-22T03:20:23;22.40;99.90
16267;DHT22;8241;48.786;9.250;2023-06-22T03:22:50;22.40;99.90
16267;DHT22;8241;48.786;9.250;2023-06-22T03:25:19;22.40;99.90
16267;DHT22;8241;48.786;9.250;2023-06-22T03:27:48;22.40;99.90
16267;DHT22;8241;48.786;9.250;2023-06-22T03:30:15;22.40;99.90
16267;DHT22;8241;48.786;9.250;2023-06-22T03:32:42;22.40;99.90
16267;DHT22;8241;48.786;9.250;2023-06-22T03:35:10;22.40;99.90
16267;DHT22;8241;48.786;9.250;2023-06-22T03:37:39;22.40;99.90
16267;DHT22;8241;48.786;9.250;2023-06-22T03:40:07;22.40;99.90
16267;DHT22;8241;48.786;9.250;2023-06-22T03:42:36;22.40;99.90
16267;DHT22;8241;48.786;9.250;2023-06-22T03:45:04;22.40;99.90
16267;DHT22;8241;48.786;9.250;2023-06-22T03:47:31;22.40;99.90
16267;DHT22;8241;48.786;9.250;2023-06-22T03:49:58;22.30;99.90
16267;DHT22;8241;48.786;9.250;2023-06-22T03:52:25;22.30;99.90
16267;DHT22;8241;48.786;9.250;2023-06-22T03:54:52;22.30;99.90
16267;DHT22;8241;48.786;9.250;2023-06-22T03:57:19;22.30;99.90
16267;DHT22;8241;48.786;9.250;2023-06-22T03:59:47;22.30;99.90
16267;DHT22;8241;48.786;9.250;2023-06-22T04:02:14;22.30;99.90
16267;DHT22;8241;48.786;9.250;2023-06-22T04:04:41;22.30;99.90
16267;DHT22;8241;48.786;9.250;2023-06-22T04:07:08;22.30;99.90
16267;DHT22;8241;48.786;9.250;2023-06-22T04:09:35;22.30;99.90
16267;DHT22;8241;48.786;9.250;2023-06-22T04:12:02;22.40;99.90
16267;DHT22;8241;48.786;9.250;2023-06-22T04:14:30;22.40;99.90
16267;DHT22;8241;48.786;9.250;2023-06-22T04:16:58;22.40;99.90
16267;DHT22;8241;48.786;9.250;2023-06-22T04:19:25;22.40;99.90
16267;DHT22;8241;48.786;9.250;2023-06-22T04:21:52;22.40;99.90
16267;DHT22;8241;48.786;9.250;2023-06-22T04:24:19;22.40;99.90
16267;DHT22;8241;48.786;9.250;2023-06-22T04:26:46;22.40;99.90
16267;DHT22;8241;48.786;9.250;2023-06-22T04:29:13;22.40;99.90
16267;DHT22;8241;48.786;9.250;2023-06-22T04:31:40;22.40;99.90
16267;DHT22;8241;48.786;9.250;2023-06-22T04:34:09;22.40;99.90
16267;DHT22;8241;48.786;9.250;2023-06-22T04:36:38;22.40;99.90
16267;DHT22;8241;48.786;9.250;2023-06-22T04:39:06;22.40;99.90
16267;DHT22;8241;48.786;9.250;2023-06-22T04:41:35;22.40;99.90
16267;DHT22;8241;48.786;9.250;2023-06-22T04:44:09;22.50;99.90
16267;DHT22;8241;48.786;9.250;2023-06-22T04:46:36;22.50;99.90
16267;DHT22;8241;48.786;9.250;2023-06-22T04:49:06;22.50;99.90
16267;DHT22;8241;48.786;9.250;2023-06-22T04:51:41;22.50;99.90
16267;DHT22;8241;48.786;9.250;2023-06-22T04:54:09;22.60;99.90
16267;DHT22;8241;48.786;9.250;2023-06-22T04:56:36;22.60;99.90
16267;DHT22;8241;48.786;9.250;2023-06-22T04:59:07;22.60;99.90
16267;DHT22;8241;48.786;9.250;2023-06-22T05:01:33;22.60;99.90
16267;DHT22;8241;48.786;9.250;2023-06-22T05:04:01;22.70;99.90
16267;DHT22;8241;48.786;9.250;2023-06-22T05:06:29;22.70;99.90
16267;DHT22;8241;48.786;9.250;2023-06-22T05:08:57;22.80;99.90
16267;DHT22;8241;48.786;9.250;2023-06-22T05:11:25;22.80;99.90
16267;DHT22;8241;48.786;9.250;2023-06-22T05:13:52;22.80;99.90
16267;DHT22;8241;48.786;9.250;2023-06-22T05:16:20;22.90;99.90
16267;DHT22;8241;48.786;9.250;2023-06-22T05:18:53;22.90;99.90
16267;DHT22;8241;48.786;9.250;2023-06-22T05:21:22;22.90;99.90
16267;DHT22;8241;48.786;9.250;2023-06-22T05:23:50;22.90;99.90
16267;DHT22;8241;48.786;9.250;2023-06-22T05:26:18;23.00;99.90
16267;DHT22;8241;48.786;9.250;2023-06-22T05:28:46;23.00;99.90
16267;DHT22;8241;48.786;9.250;2023-06-22T05:31:13;23.10;99.90
16267;DHT22;8241;48.786;9.250;2023-06-22T05:33:40;23.20;99.90
16267;DHT22;8241;48.786;9.250;2023-06-22T05:36:08;23.30;99.90
16267;DHT22;8241;48.786;9.250;2023-06-22T05:38:35;23.30;99.90
16267;DHT22;8241;48.786;9.250;2023-06-22T05:41:02;23.40;99.90
16267;DHT22;8241;48.786;9.250;2023-06-22T05:43:31;23.40;99.90
16267;DHT22;8241;48.786;9.250;2023-06-22T05:45:58;23.40;99.90
16267;DHT22;8241;48.786;9.250;2023-06-22T05:48:24;23.50;99.70
16267;DHT22;8241;48.786;9.250;2023-06-22T05:50:52;23.50;99.80
16267;DHT22;8241;48.786;9.250;2023-06-22T05:53:19;23.50;99.80
16267;DHT22;8241;48.786;9.250;2023-06-22T05:55:46;23.60;99.80
16267;DHT22;8241;48.786;9.250;2023-06-22T05:58:13;23.60;99.70
16267;DHT22;8241;48.786;9.250;2023-06-22T06:00:42;23.70;99.60
16267;DHT22;8241;48.786;9.250;2023-06-22T06:03:10;23.90;99.30
16267;DHT22;8241;48.786;9.250;2023-06-22T06:05:37;24.10;99.00
16267;DHT22;8241;48.786;9.250;2023-06-22T06:08:05;24.30;98.80
16267;DHT22;8241;48.786;9.250;2023-06-22T06:10:34;24.50;98.20
16267;DHT22;8241;48.786;9.250;2023-06-22T06:13:01;24.60;97.90
16267;DHT22;8241;48.786;9.250;2023-06-22T06:15:30;24.70;97.60
16267;DHT22;8241;48.786;9.250;2023-06-22T06:17:59;24.80;97.50
16267;DHT22;8241;48.786;9.250;2023-06-22T06:20:27;24.90;97.20
16267;DHT22;8241;48.786;9.250;2023-06-22T06:22:54;25.00;97.10
16267;DHT22;8241;48.786;9.250;2023-06-22T06:25:22;24.90;96.90
16267;DHT22;8241;48.786;9.250;2023-06-22T06:27:50;25.00;96.80
16267;DHT22;8241;48.786;9.250;2023-06-22T06:30:19;25.20;96.60
16267;DHT22;8241;48.786;9.250;2023-06-22T06:32:46;25.60;96.10
16267;DHT22;8241;48.786;9.250;2023-06-22T06:35:15;26.00;95.50
16267;DHT22;8241;48.786;9.250;2023-06-22T06:37:44;26.50;94.80
16267;DHT22;8241;48.786;9.250;2023-06-22T06:40:13;26.80;94.20
16267;DHT22;8241;48.786;9.250;2023-06-22T06:42:43;27.00;94.00
16267;DHT22;8241;48.786;9.250;2023-06-22T06:45:11;27.20;93.90
16267;DHT22;8241;48.786;9.250;2023-06-22T06:47:39;27.30;93.70
16267;DHT22;8241;48.786;9.250;2023-06-22T06:50:07;27.30;93.60
16267;DHT22;8241;48.786;9.250;2023-06-22T06:52:36;27.30;93.60
16267;DHT22;8241;48.786;9.250;2023-06-22T06:55:03;27.30;93.50
16267;DHT22;8241;48.786;9.250;2023-06-22T06:57:33;27.20;94.00
16267;DHT22;8241;48.786;9.250;2023-06-22T07:00:00;27.00;93.80
16267;DHT22;8241;48.786;9.250;2023-06-22T07:02:32;27.00;93.90
16267;DHT22;8241;48.786;9.250;2023-06-22T07:04:58;26.90;94.10
16267;DHT22;8241;48.786;9.250;2023-06-22T07:07:25;26.80;94.10
16267;DHT22;8241;48.786;9.250;2023-06-22T07:09:54;26.80;94.20
16267;DHT22;8241;48.786;9.250;2023-06-22T07:12:20;26.80;94.20
16267;DHT22;8241;48.786;9.250;2023-06-22T07:14:47;26.70;94.30
16267;DHT22;8241;48.786;9.250;2023-06-22T07:17:15;26.70;94.20
16267;DHT22;8241;48.786;9.250;2023-06-22T07:19:42;26.60;93.90
16267;DHT22;8241;48.786;9.250;2023-06-22T07:22:09;26.70;93.60
16267;DHT22;8241;48.786;9.250;2023-06-22T07:24:36;26.70;93.70
16267;DHT22;8241;48.786;9.250;2023-06-22T07:27:05;26.70;93.90
16267;DHT22;8241;48.786;9.250;2023-06-22T07:29:33;26.70;93.80
16267;DHT22;8241;48.786;9.250;2023-06-22T07:32:01;26.80;93.70
16267;DHT22;8241;48.786;9.250;2023-06-22T07:34:30;26.70;93.50
16267;DHT22;8241;48.786;9.250;2023-06-22T07:36:57;26.70;93.70
16267;DHT22;8241;48.786;9.250;2023-06-22T07:39:24;26.80;93.40
16267;DHT22;8241;48.786;9.250;2023-06-22T07:41:52;26.80;93.50
16267;DHT22;8241;48.786;9.250;2023-06-22T07:44:20;26.90;93.60
16267;DHT22;8241;48.786;9.250;2023-06-22T07:46:48;26.90;93.70
16267;DHT22;8241;48.786;9.250;2023-06-22T07:49:15;27.00;93.50
16267;DHT22;8241;48.786;9.250;2023-06-22T07:51:42;27.10;93.50
16267;DHT22;8241;48.786;9.250;2023-06-22T07:54:09;27.20;93.50
16267;DHT22;8241;48.786;9.250;2023-06-22T07:56:36;27.30;93.00
16267;DHT22;8241;48.786;9.250;2023-06-22T07:59:03;27.30;92.60
16267;DHT22;8241;48.786;9.250;2023-06-22T08:01:31;27.10;93.00
16267;DHT22;8241;48.786;9.250;2023-06-22T08:03:58;27.00;93.20
16267;DHT22;8241;48.786;9.250;2023-06-22T08:06:26;27.00;93.10
16267;DHT22;8241;48.786;9.250;2023-06-22T08:08:53;27.20;93.10
16267;DHT22;8241;48.786;9.250;2023-06-22T08:11:24;27.20;93.10
16267;DHT22;8241;48.786;9.250;2023-06-22T08:13:51;27.30;93.30
16267;DHT22;8241;48.786;9.250;2023-06-22T08:16:18;27.40;93.20
16267;DHT22;8241;48.786;9.250;2023-06-22T08:18:46;27.60;93.20
16267;DHT22;8241;48.786;9.250;2023-06-22T08:21:13;27.80;92.70
16267;DHT22;8241;48.786;9.250;2023-06-22T08:23:40;27.80;92.10
16267;DHT22;8241;48.786;9.250;2023-06-22T08:26:07;27.90;92.40
16267;DHT22;8241;48.786;9.250;2023-06-22T08:28:34;28.00;92.50
16267;DHT22;8241;48.786;9.250;2023-06-22T08:31:02;28.20;92.40
16267;DHT22;8241;48.786;9.250;2023-06-22T08:33:29;28.10;92.10
16267;DHT22;8241;48.786;9.250;2023-06-22T08:35:58;28.20;92.40
16267;DHT22;8241;48.786;9.250;2023-06-22T08:38:25;28.20;92.40
16267;DHT22;8241;48.786;9.250;2023-06-22T08:40:52;28.20;92.30
16267;DHT22;8241;48.786;9.250;2023-06-22T08:43:19;28.20;92.10
16267;DHT22;8241;48.786;9.250;2023-06-22T08:45:46;28.30;92.10
16267;DHT22;8241;48.786;9.250;2023-06-22T08:48:13;28.40;91.90
16267;DHT22;8241;48.786;9.250;2023-06-22T08:50:40;28.60;91.80
16267;DHT22;8241;48.786;9.250;2023-06-22T08:53:08;28.60;91.50
16267;DHT22;8241;48.786;9.250;2023-06-22T08:55:35;28.70;91.10
16267;DHT22;8241;48.786;9.250;2023-06-22T08:58:02;28.70;91.20
16267;DHT22;8241;48.786;9.250;2023-06-22T09:00:30;28.70;90.90
16267;DHT22;8241;48.786;9.250;2023-06-22T09:03:00;28.70;91.30
16267;DHT22;8241;48.786;9.250;2023-06-22T09:05:27;28.70;91.20
16267;DHT22;8241;48.786;9.250;2023-06-22T09:07:55;28.80;91.20
16267;DHT22;8241;48.786;9.250;2023-06-22T09:10:25;28.80;91.20
16267;DHT22;8241;48.786;9.250;2023-06-22T09:12:52;28.90;91.00
16267;DHT22;8241;48.786;9.250;2023-06-22T09:15:19;28.80;90.80
16267;DHT22;8241;48.786;9.250;2023-06-22T09:17:46;28.70;91.00
16267;DHT22;8241;48.786;9.250;2023-06-22T09:20:13;28.70;91.10
16267;DHT22;8241;48.786;9.250;2023-06-22T09:22:40;28.70;91.10
16267;DHT22;8241;48.786;9.250;2023-06-22T09:25:07;28.70;91.00
16267;DHT22;8241;48.786;9.250;2023-06-22T09:27:36;28.80;91.20
16267;DHT22;8241;48.786;9.250;2023-06-22T09:30:03;28.90;91.10
16267;DHT22;8241;48.786;9.250;2023-06-22T09:32:30;29.10;90.80
16267;DHT22;8241;48.786;9.250;2023-06-22T09:34:58;29.30;90.50
16267;DHT22;8241;48.786;9.250;2023-06-22T09:37:24;29.50;90.00
16267;DHT22;8241;48.786;9.250;2023-06-22T09:39:51;29.40;90.00
16267;DHT22;8241;48.786;9.250;2023-06-22T09:42:18;29.50;90.20
16267;DHT22;8241;48.786;9.250;2023-06-22T09:44:47;29.60;90.00
16267;DHT22;8241;48.786;9.250;2023-06-22T09:47:14;29.70;89.50
16267;DHT22;8241;48.786;9.250;2023-06-22T09:49:41;29.50;88.10
16267;DHT22;8241;48.786;9.250;2023-06-22T09:52:08;29.60;89.30
16267;DHT22;8241;48.786;9.250;2023-06-22T09:54:36;29.70;87.20
16267;DHT22;8241;48.786;9.250;2023-06-22T09:57:04;29.50;87.00
16267;DHT22;8241;48.786;9.250;2023-06-22T09:59:31;29.50;87.90
16267;DHT22;8241;48.786;9.250;2023-06-22T10:01:59;29.40;87.90
16267;DHT22;8241;48.786;9.250;2023-06-22T10:04:26;29.40;88.00
16267;DHT22;8241;48.786;9.250;2023-06-22T10:06:52;29.60;86.70
16267;DHT22;8241;48.786;9.250;2023-06-22T10:09:20;29.80;86.00
16267;DHT22;8241;48.786;9.250;2023-06-22T10:11:47;29.90;86.00
16267;DHT22;8241;48.786;9.250;2023-06-22T10:14:14;29.90;85.30
16267;DHT22;8241;48.786;9.250;2023-06-22T10:16:40;29.90;86.20
16267;DHT22;8241;48.786;9.250;2023-06-22T10:19:09;30.00;85.60
16267;DHT22;8241;48.786;9.250;2023-06-22T10:21:36;29.90;85.90
16267;DHT22;8241;48.786;9.250;2023-06-22T10:24:03;29.90;87.30
16267;DHT22;8241;48.786;9.250;2023-06-22T10:26:32;29.70;87.50
16267;DHT22;8241;48.786;9.250;2023-06-22T10:28:59;29.80;86.70
16267;DHT22;8241;48.786;9.250;2023-06-22T10:31:26;30.00;85.30
16267;DHT22;8241;48.786;9.250;2023-06-22T10:33:54;30.00;85.30
16267;DHT22;8241;48.786;9.250;2023-06-22T10:36:22;29.90;86.50
16267;DHT22;8241;48.786;9.250;2023-06-22T10:38:49;30.10;86.00
16267;DHT22;8241;48.786;9.250;2023-06-22T10:41:18;30.20;86.00
16267;DHT22;8241;48.786;9.250;2023-06-22T10:43:45;30.10;85.60
16267;DHT22;8241;48.786;9.250;2023-06-22T10:46:12;30.20;86.10
16267;DHT22;8241;48.786;9.250;2023-06-22T10:48:39;30.10;86.50
16267;DHT22;8241;48.786;9.250;2023-06-22T10:51:06;30.20;86.30
16267;DHT22;8241;48.786;9.250;2023-06-22T10:53:34;30.00;85.50
16267;DHT22;8241;48.786;9.250;2023-06-22T10:56:01;29.80;86.20
16267;DHT22;8241;48.786;9.250;2023-06-22T10:58:28;29.80;87.50
16267;DHT22;8241;48.786;9.250;2023-06-22T11:00:55;29.80;86.30
16267;DHT22;8241;48.786;9.250;2023-06-22T11:03:22;30.00;86.10
16267;DHT22;8241;48.786;9.250;2023-06-22T11:05:48;30.10;87.30
16267;DHT22;8241;48.786;9.250;2023-06-22T11:08:15;30.00;88.10
16267;DHT22;8241;48.786;9.250;2023-06-22T11:10:44;30.00;88.40
16267;DHT22;8241;48.786;9.250;2023-06-22T11:13:11;30.10;87.80
16267;DHT22;8241;48.786;9.250;2023-06-22T11:15:38;30.00;87.60
16267;DHT22;8241;48.786;9.250;2023-06-22T11:18:05;30.00;88.00
16267;DHT22;8241;48.786;9.250;2023-06-22T11:20:33;30.10;88.50
16267;DHT22;8241;48.786;9.250;2023-06-22T11:23:04;30.00;88.70
16267;DHT22;8241;48.786;9.250;2023-06-22T11:25:31;30.00;87.90
16267;DHT22;8241;48.786;9.250;2023-06-22T11:28:03;30.20;86.60
16267;DHT22;8241;48.786;9.250;2023-06-22T11:30:29;30.40;85.40
16267;DHT22;8241;48.786;9.250;2023-06-22T11:32:56;30.50;85.30
16267;DHT22;8241;48.786;9.250;2023-06-22T11:35:24;30.30;85.80
16267;DHT22;8241;48.786;9.250;2023-06-22T11:37:51;30.20;86.90
16267;DHT22;8241;48.786;9.250;2023-06-22T11:40:18;30.20;87.10
16267;DHT22;8241;48.786;9.250;2023-06-22T11:42:45;30.30;86.00
16267;DHT22;8241;48.786;9.250;2023-06-22T11:45:14;30.20;86.50
16267;DHT22;8241;48.786;9.250;2023-06-22T11:47:40;30.20;87.00
16267;DHT22;8241;48.786;9.250;2023-06-22T11:50:08;30.20;88.00
16267;DHT22;8241;48.786;9.250;2023-06-22T11:52:35;30.30;86.40
16267;DHT22;8241;48.786;9.250;2023-06-22T11:55:03;30.30;86.80
16267;DHT22;8241;48.786;9.250;2023-06-22T11:57:33;30.30;85.90
16267;DHT22;8241;48.786;9.250;2023-06-22T12:00:00;30.50;85.40
16267;DHT22;8241;48.786;9.250;2023-06-22T12:02:28;30.50;85.40
16267;DHT22;8241;48.786;9.250;2023-06-22T12:04:55;30.50;84.80
16267;DHT22;8241;48.786;9.250;2023-06-22T12:07:23;30.50;85.20
16267;DHT22;8241;48.786;9.250;2023-06-22T12:09:50;30.40;85.80
16267;DHT22;8241;48.786;9.250;2023-06-22T12:12:17;30.60;85.40
16267;DHT22;8241;48.786;9.250;2023-06-22T12:14:44;30.50;85.40
16267;DHT22;8241;48.786;9.250;2023-06-22T12:17:12;30.50;86.10
16267;DHT22;8241;48.786;9.250;2023-06-22T12:19:40;30.50;85.40
16267;DHT22;8241;48.786;9.250;2023-06-22T12:22:07;30.50;84.80
16267;DHT22;8241;48.786;9.250;2023-06-22T12:24:34;30.40;85.50
16267;DHT22;8241;48.786;9.250;2023-06-22T12:27:02;30.30;85.80
16267;DHT22;8241;48.786;9.250;2023-06-22T12:29:29;30.30;85.70
16267;DHT22;8241;48.786;9.250;2023-06-22T12:31:56;30.30;85.40
16267;DHT22;8241;48.786;9.250;2023-06-22T12:34:23;30.20;85.80
16267;DHT22;8241;48.786;9.250;2023-06-22T12:36:51;30.20;85.80
16267;DHT22;8241;48.786;9.250;2023-06-22T12:39:20;30.20;85.80
16267;DHT22;8241;48.786;9.250;2023-06-22T12:41:47;30.20;86.00
16267;DHT22;8241;48.786;9.250;2023-06-22T12:44:14;30.20;85.60
16267;DHT22;8241;48.786;9.250;2023-06-22T12:46:41;30.00;85.70
16267;DHT22;8241;48.786;9.250;2023-06-22T12:49:07;29.90;86.40
16267;DHT22;8241;48.786;9.250;2023-06-22T12:51:39;29.90;85.90
16267;DHT22;8241;48.786;9.250;2023-06-22T12:54:08;29.90;85.60
16267;DHT22;8241;48.786;9.250;2023-06-22T12:56:35;30.20;85.60
16267;DHT22;8241;48.786;9.250;2023-06-22T12:59:01;30.30;86.00
16267;DHT22;8241;48.786;9.250;2023-06-22T13:01:28;30.40;86.40
16267;DHT22;8241;48.786;9.250;2023-06-22T13:03:56;30.30;86.70
16267;DHT22;8241;48.786;9.250;2023-06-22T13:06:22;30.20;87.20
16267;DHT22;8241;48.786;9.250;2023-06-22T13:08:49;30.20;87.80
16267;DHT22;8241;48.786;9.250;2023-06-22T13:11:17;30.20;87.50
16267;DHT22;8241;48.786;9.250;2023-06-22T13:13:45;30.20;87.60
16267;DHT22;8241;48.786;9.250;2023-06-22T13:16:12;30.10;86.80
16267;DHT22;8241;48.786;9.250;2023-06-22T13:18:39;30.10;86.20
16267;DHT22;8241;48.786;9.250;2023-06-22T13:21:06;30.10;86.30
16267;DHT22;8241;48.786;9.250;2023-06-22T13:23:33;30.10;86.60
16267;DHT22;8241;48.786;9.250;2023-06-22T13:26:01;30.00;87.30
16267;DHT22;8241;48.786;9.250;2023-06-22T13:28:29;30.20;87.00
16267;DHT22;8241;48.786;9.250;2023-06-22T13:30:56;30.40;86.40
16267;DHT22;8241;48.786;9.250;2023-06-22T13:33:23;30.30;86.30
16267;DHT22;8241;48.786;9.250;2023-06-22T13:35:50;30.30;86.40
16267;DHT22;8241;48.786;9.250;2023-06-22T13:38:17;30.30;86.70
16267;DHT22;8241;48.786;9.250;2023-06-22T13:40:44;30.30;87.30
16267;DHT22;8241;48.786;9.250;2023-06-22T13:43:13;30.20;88.30
16267;DHT22;8241;48.786;9.250;2023-06-22T13:45:41;30.30;88.00
16267;DHT22;8241;48.786;9.250;2023-06-22T13:48:08;30.20;87.70
16267;DHT22;8241;48.786;9.250;2023-06-22T13:50:36;30.30;86.40
16267;DHT22;8241;48.786;9.250;2023-06-22T13:53:02;30.20;85.60
16267;DHT22;8241;48.786;9.250;2023-06-22T13:55:29;30.30;85.10
16267;DHT22;8241;48.786;9.250;2023-06-22T13:57:56;30.40;85.20
16267;DHT22;8241;48.786;9.250;2023-06-22T14:00:23;30.50;85.10
16267;DHT22;8241;48.786;9.250;2023-06-22T14:02:51;30.40;85.80
16267;DHT22;8241;48.786;9.250;2023-06-22T14:05:18;30.60;85.20
16267;DHT22;8241;48.786;9.250;2023-06-22T14:07:45;30.70;84.40
16267;DHT22;8241;48.786;9.250;2023-06-22T14:10:12;30.80;85.40
16267;DHT22;8241;48.786;9.250;2023-06-22T14:12:39;30.70;84.10
16267;DHT22;8241;48.786;9.250;2023-06-22T14:15:07;30.80;84.00
16267;DHT22;8241;48.786;9.250;2023-06-22T14:17:34;30.80;84.70
16267;DHT22;8241;48.786;9.250;2023-06-22T14:20:03;31.00;83.90
16267;DHT22;8241;48.786;9.250;2023-06-22T14:22:31;31.20;82.40
16267;DHT22;8241;48.786;9.250;2023-06-22T14:24:59;31.30;81.30
16267;DHT22;8241;48.786;9.250;2023-06-22T14:27:25;31.40;82.50
16267;DHT22;8241;48.786;9.250;2023-06-22T14:29:52;31.50;82.10
16267;DHT22;8241;48.786;9.250;2023-06-22T14:32:19;31.40;81.50
16267;DHT22;8241;48.786;9.250;2023-06-22T14:34:46;31.40;81.70
16267;DHT22;8241;48.786;9.250;2023-06-22T14:37:17;31.40;81.90
16267;DHT22;8241;48.786;9.250;2023-06-22T14:39:44;31.40;80.90
16267;DHT22;8241;48.786;9.250;2023-06-22T14:42:10;31.30;80.50
16267;DHT22;8241;48.786;9.250;2023-06-22T14:44:37;31.40;78.00
16267;DHT22;8241;48.786;9.250;2023-06-22T14:47:05;31.50;78.10
16267;DHT22;8241;48.786;9.250;2023-06-22T14:49:32;31.70;75.70
16267;DHT22;8241;48.786;9.250;2023-06-22T14:51:59;31.90;74.80
16267;DHT22;8241;48.786;9.250;2023-06-22T14:54:27;32.00;75.60
16267;DHT22;8241;48.786;9.250;2023-06-22T14:56:54;32.00;73.60
16267;DHT22;8241;48.786;9.250;2023-06-22T14:59:20;32.00;74.20
16267;DHT22;8241;48.786;9.250;2023-06-22T15:01:47;32.00;73.40
16267;DHT22;8241;48.786;9.250;2023-06-22T15:04:15;32.00;71.00
16267;DHT22;8241;48.786;9.250;2023-06-22T15:06:42;32.00;70.10
16267;DHT22;8241;48.786;9.250;2023-06-22T15:09:09;32.00;67.10
16267;DHT22;8241;48.786;9.250;2023-06-22T15:11:38;32.00;66.40
16267;DHT22;8241;48.786;9.250;2023-06-22T15:14:04;31.90;66.10
16267;DHT22;8241;48.786;9.250;2023-06-22T15:16:31;31.70;66.20
16267;DHT22;8241;48.786;9.250;2023-06-22T15:18:58;31.70;66.70
16267;DHT22;8241;48.786;9.250;2023-06-22T15:21:25;31.70;67.40
16267;DHT22;8241;48.786;9.250;2023-06-22T15:23:53;31.70;67.00
16267;DHT22;8241;48.786;9.250;2023-06-22T15:26:20;31.70;67.00
16267;DHT22;8241;48.786;9.250;2023-06-22T15:28:48;31.60;66.60
16267;DHT22;8241;48.786;9.250;2023-06-22T15:31:15;31.60;67.00
16267;DHT22;8241;48.786;9.250;2023-06-22T15:33:42;31.60;67.40
16267;DHT22;8241;48.786;9.250;2023-06-22T15:36:09;31.60;68.00
16267;DHT22;8241;48.786;9.250;2023-06-22T15:38:36;31.60;66.00
16267;DHT22;8241;48.786;9.250;2023-06-22T15:41:04;31.60;66.10
16267;DHT22;8241;48.786;9.250;2023-06-22T15:43:30;31.50;67.60
16267;DHT22;8241;48.786;9.250;2023-06-22T15:45:59;31.50;66.90
16267;DHT22;8241;48.786;9.250;2023-06-22T15:48:25;31.60;66.60